Fair Seas — V7PD2 — position and weather

sailwx.info

Track history (hours):
 
Tides and Currents Weather Stations Pressure Air Temp Water Temp Dewpoint Dewpoint Depression Visibility Wind Speed Wind Dir Waves Ship Positions

Fair Seas

Last reported at 2014-Jul-25 15:31 UTC. Time now 2014-Jul-25 16:03 UTC.
Position N 51°49' E 003°23'.

Length 250 m; draft 8.1 m.

Type: Tanker. MMSI: 538003211.

Date/timePositionNaut miles runAvg speedWind from/ knotsBaromVisibWave heightAir tempDewpointWater temp
2014-Jul-25 15:31N 51°49' E 003°23'0 0.0
2014-Jul-25 14:28N 51°49' E 003°23'0 0.0
2014-Jul-25 13:31N 51°49' E 003°23'0 0.0
2014-Jul-25 12:31N 51°49' E 003°23'0 0.2
2014-Jul-25 11:31N 51°49' E 003°23'0 0.0
2014-Jul-25 08:32N 51°49' E 003°23'6 6.1
2014-Jul-25 07:30N 51°44' E 003°16'9 9.3
2014-Jul-25 06:30N 51°36' E 003°10'1111.3
2014-Jul-25 05:33N 51°27' E 002°60'1312.8
2014-Jul-25 04:33N 51°24' E 003°20'1414.2
2014-Jul-25 03:33N 51°25' E 003°42'10 9.9
2014-Jul-25 02:33N 51°26' E 003°58'9 9.4
2014-Jul-25 01:33N 51°23' E 004°13'4 3.9
2014-Jul-25 00:34N 51°21' E 004°17'1 1.0
2014-Jul-24 23:33N 51°20' E 004°18'4 3.9
2014-Jul-24 22:33N 51°16' E 004°21'0 0.0
2014-Jul-24 21:32N 51°16' E 004°21'0 0.0
2014-Jul-24 20:32N 51°16' E 004°21'0 0.0
2014-Jul-24 19:32N 51°16' E 004°21'0 0.0
2014-Jul-24 18:32N 51°16' E 004°21'0 0.0
2014-Jul-24 17:32N 51°16' E 004°21'0 0.0
2014-Jul-24 16:32N 51°16' E 004°21'0 0.0
2014-Jul-24 15:32N 51°16' E 004°21'0 0.0
2014-Jul-24 14:32N 51°16' E 004°21'0 0.0
2014-Jul-24 13:32N 51°16' E 004°21'0 0.0
2014-Jul-24 12:32N 51°16' E 004°21'0 0.0
2014-Jul-24 11:32N 51°16' E 004°21'0 0.0
2014-Jul-24 10:32N 51°16' E 004°21'0 0.0
2014-Jul-24 09:32N 51°16' E 004°21'0 0.0
2014-Jul-24 08:32N 51°16' E 004°21'0 0.0
2014-Jul-24 07:32N 51°16' E 004°21'0 0.0
2014-Jul-24 06:32N 51°16' E 004°21'0 0.0
2014-Jul-24 05:32N 51°16' E 004°21'0 0.0
2014-Jul-24 04:32N 51°16' E 004°21'0 0.0
2014-Jul-24 03:32N 51°16' E 004°21'0 0.0
2014-Jul-24 02:32N 51°16' E 004°21'0 0.0
2014-Jul-24 01:32N 51°16' E 004°21'0 0.0
2014-Jul-24 00:32N 51°16' E 004°21'0 0.0
2014-Jul-23 23:32N 51°16' E 004°21'0 0.0
2014-Jul-23 22:32N 51°16' E 004°21'0 0.0
2014-Jul-23 21:32N 51°16' E 004°21'0 0.0
2014-Jul-23 20:32N 51°16' E 004°21'0 0.0
2014-Jul-23 19:32N 51°16' E 004°21'0 0.0
2014-Jul-23 18:32N 51°16' E 004°21'0 0.0
2014-Jul-23 17:32N 51°16' E 004°21'0 0.0
2014-Jul-23 16:32N 51°16' E 004°21'0 0.0
2014-Jul-23 15:32N 51°16' E 004°21'0 0.0
2014-Jul-23 14:29N 51°16' E 004°21'0 0.0
2014-Jul-23 13:32N 51°16' E 004°21'0 0.0
2014-Jul-23 12:32N 51°16' E 004°21'0 0.0
2014-Jul-23 11:32N 51°16' E 004°21'0 0.0
2014-Jul-23 10:32N 51°16' E 004°21'0 0.0
2014-Jul-23 09:29N 51°16' E 004°21'0 0.0
2014-Jul-23 08:32N 51°16' E 004°21'0 0.0
2014-Jul-23 07:32N 51°16' E 004°21'0 0.0
2014-Jul-23 06:32N 51°16' E 004°21'0 0.0
2014-Jul-23 05:32N 51°16' E 004°21'0 0.0
2014-Jul-23 04:32N 51°16' E 004°21'0 0.0
2014-Jul-23 03:32N 51°16' E 004°21'0 0.0
2014-Jul-23 02:32N 51°16' E 004°21'0 0.0
2014-Jul-23 01:23N 51°16' E 004°21'0 0.0
2014-Jul-23 00:29N 51°16' E 004°21'0 0.0
2014-Jul-22 23:29N 51°16' E 004°21'0 0.0
2014-Jul-22 22:32N 51°16' E 004°21'0 0.0
2014-Jul-22 21:32N 51°16' E 004°21'0 0.0
2014-Jul-22 20:32N 51°16' E 004°21'0 0.0
2014-Jul-22 19:32N 51°16' E 004°21'0 0.0
2014-Jul-22 18:32N 51°16' E 004°21'0 0.0
2014-Jul-22 17:32N 51°16' E 004°21'0 0.0
2014-Jul-22 16:32N 51°16' E 004°21'0 0.0
2014-Jul-22 15:29N 51°16' E 004°21'0 0.0
2014-Jul-22 14:32N 51°16' E 004°21'0 0.0
2014-Jul-22 13:32N 51°16' E 004°21'0 0.0
2014-Jul-22 12:32N 51°16' E 004°21'0 0.0
2014-Jul-22 11:32N 51°16' E 004°21'0 0.0
2014-Jul-22 10:33N 51°16' E 004°21'4 4.4
2014-Jul-22 09:34N 51°20' E 004°18'1 0.7
2014-Jul-22 08:34N 51°21' E 004°17'0 0.0
2014-Jul-22 07:34N 51°21' E 004°17'3 2.5
2014-Jul-22 06:34N 51°22' E 004°13'7 7.0
2014-Jul-22 05:34N 51°23' E 004°02'5 4.6
2014-Jul-22 04:34N 51°22' E 003°55'9 9.2
2014-Jul-22 03:34N 51°26' E 003°42'10 9.5
2014-Jul-22 02:33N 51°25' E 003°26'8 7.5
2014-Jul-22 01:33N 51°24' E 003°14'9 8.8
2014-Jul-22 00:33N 51°25' E 003°00'1111.4
2014-Jul-21 23:33N 51°23' E 002°42'7 6.8
2014-Jul-21 22:33N 51°22' E 002°31'5 4.7
2014-Jul-21 21:33N 51°20' E 002°24'8 7.5
2014-Jul-21 20:30N 51°18' E 002°12'211.7
2014-Jul-21 20:18N 51°19' E 002°09'911.5
2014-Jul-21 19:33N 51°25' E 001°59'1212.4
2014-Jul-21 18:33N 51°35' E 002°12'1313.2
2014-Jul-21 17:33N 51°46' E 002°24'1413.9
2014-Jul-21 16:34N 51°57' E 002°38'3113.5
2014-Jul-21 14:17N 52°20' E 003°11'2212.4
2014-Jul-21 12:31N 52°31' E 003°42'1212.4
2014-Jul-21 11:33N 52°31' E 004°02'1212.6
2014-Jul-21 10:33N 52°30' E 004°22'9 9.0
2014-Jul-21 09:33N 52°28' E 004°36'2 1.6
2014-Jul-21 08:33N 52°28' E 004°39'5 4.7
2014-Jul-21 07:33N 52°25' E 004°45'0 0.0
2014-Jul-21 06:33N 52°25' E 004°45'0 0.0
2014-Jul-21 05:33N 52°25' E 004°45'0 0.0
2014-Jul-21 04:33N 52°25' E 004°45'0 0.0
2014-Jul-21 03:33N 52°25' E 004°45'0 0.0
2014-Jul-21 02:33N 52°25' E 004°45'0 0.0
2014-Jul-21 01:33N 52°25' E 004°45'0 0.0
2014-Jul-21 00:33N 52°25' E 004°45'0 0.0
2014-Jul-20 23:33N 52°25' E 004°45'0 0.0
2014-Jul-20 22:33N 52°25' E 004°45'0 0.0
2014-Jul-20 21:33N 52°25' E 004°45'0 0.0
2014-Jul-20 20:33N 52°25' E 004°45'0 0.0
2014-Jul-20 19:33N 52°25' E 004°45'0 0.0
2014-Jul-20 18:33N 52°25' E 004°45'0 0.0
2014-Jul-20 17:33N 52°25' E 004°45'0 0.0
2014-Jul-20 16:33N 52°25' E 004°45'0 0.0
2014-Jul-20 15:33N 52°25' E 004°45'0 0.0
2014-Jul-20 14:33N 52°25' E 004°45'0 0.0
2014-Jul-20 13:33N 52°25' E 004°45'0 0.0
2014-Jul-20 12:33N 52°25' E 004°45'0 0.0
2014-Jul-20 11:33N 52°25' E 004°45'0 0.0
2014-Jul-20 10:33N 52°25' E 004°45'0 0.0
2014-Jul-20 09:33N 52°25' E 004°45'0 0.0
2014-Jul-20 08:33N 52°25' E 004°45'0 0.0
2014-Jul-20 07:33N 52°25' E 004°45'0 0.0
2014-Jul-20 06:33N 52°25' E 004°45'0 0.0
2014-Jul-20 05:33N 52°25' E 004°45'0 0.0
2014-Jul-20 04:33N 52°25' E 004°45'0 0.0
2014-Jul-20 03:33N 52°25' E 004°45'0 0.0
2014-Jul-20 02:33N 52°25' E 004°45'0 0.0
2014-Jul-20 01:33N 52°25' E 004°45'0 0.0
2014-Jul-20 00:33N 52°25' E 004°45'0 0.0
2014-Jul-19 23:33N 52°25' E 004°45'0 0.0
2014-Jul-19 22:33N 52°25' E 004°45'0 0.0
2014-Jul-19 21:33N 52°25' E 004°45'0 0.0
2014-Jul-19 20:33N 52°25' E 004°45'1 0.9
2014-Jul-19 19:34N 52°26' E 004°45'5 5.1
2014-Jul-19 18:33N 52°28' E 004°37'1 0.7
2014-Jul-19 17:34N 52°28' E 004°36'6 6.3
2014-Jul-19 16:33N 52°29' E 004°26'8 8.2
2014-Jul-19 15:33N 52°29' E 004°12'1110.6
2014-Jul-19 14:33N 52°27' E 003°55'7 7.0
2014-Jul-19 13:33N 52°25' E 003°44'9 8.7
2014-Jul-19 12:32N 52°23' E 003°30'1211.0
2014-Jul-19 11:23N 52°13' E 003°17'3812.2
2014-Jul-19 08:16N 51°45' E 002°35'913.0
2014-Jul-19 07:33N 51°38' E 002°25'1313.4
2014-Jul-19 06:33N 51°28' E 002°12'1212.0
2014-Jul-19 05:33N 51°16' E 002°07'1413.7
2014-Jul-19 04:33N 51°08' E 001°49'1515.0
2014-Jul-19 03:34N 50°58' E 001°32'1413.9
2014-Jul-19 02:31N 50°45' E 001°22'1313.2
2014-Jul-19 01:32N 50°35' E 001°09'1712.6
2014-Jul-19 00:10N 50°27' E 000°45'812.2
2014-Jul-18 23:33N 50°25' E 000°34'1211.7
2014-Jul-18 22:33N 50°21' E 000°16'2311.0
2014-Jul-18 20:30N 50°15' W 000°18'1310.1
2014-Jul-18 19:15N 50°12' W 000°37'7 9.7
2014-Jul-18 18:33N 50°10' W 000°47'10 9.5
2014-Jul-18 17:33N 50°08' W 001°02'1010.1
2014-Jul-18 16:32N 50°05' W 001°17'1611.7
2014-Jul-18 15:10N 50°01' W 001°41'1313.5
2014-Jul-18 14:13N 49°58' W 002°01'4213.7
2014-Jul-18 11:09N 49°47' W 003°03'5213.3
2014-Jul-18 07:14N 49°20' W 004°13'2313.0
2014-Jul-18 05:28N 49°09' W 004°43'1212.3
2014-Jul-18 04:27N 49°02' W 004°59'4310.9
2014-Jul-18 00:32N 48°34' W 005°48'1311.1
2014-Jul-17 23:19N 48°22' W 005°58'911.7
2014-Jul-17 22:33N 48°14' W 006°04'45511.7
2014-Jul-16 07:29N 41°10' W 009°56'7311.6
2014-Jul-16 01:09N 39°56' W 009°57'3311.4
2014-Jul-15 22:17N 39°24' W 009°57'2211.2
2014-Jul-15 20:17N 39°01' W 009°55'810.9
2014-Jul-15 19:33N 38°53' W 009°57'1111.3
2014-Jul-15 18:33N 38°42' W 009°56'1211.8
2014-Jul-15 17:33N 38°30' W 009°53'1111.3
2014-Jul-15 16:33N 38°19' W 009°50'1111.4
2014-Jul-15 15:33N 38°08' W 009°47'  
Track history (hours):
 
Tides and Currents Weather Stations Pressure Air Temp Water Temp Dewpoint Dewpoint Depression Visibility Wind Speed Wind Dir Waves Ship Positions

Fair Seas

Last reported at 2014-Jul-25 15:31 UTC. Time now 2014-Jul-25 16:03 UTC.
Position N 51°49' E 003°23'.

Length 250 m; draft 8.1 m.

Type: Tanker. MMSI: 538003211.

Date/timePositionNaut miles runAvg speedWind from/ knotsBaromVisibWave heightAir tempDewpointWater temp
2014-Jul-25 15:31N 51°49' E 003°23'0 0.0
2014-Jul-25 14:28N 51°49' E 003°23'0 0.0
2014-Jul-25 13:31N 51°49' E 003°23'0 0.0
2014-Jul-25 12:31N 51°49' E 003°23'0 0.2
2014-Jul-25 11:31N 51°49' E 003°23'0 0.0
2014-Jul-25 08:32N 51°49' E 003°23'6 6.1
2014-Jul-25 07:30N 51°44' E 003°16'9 9.3
2014-Jul-25 06:30N 51°36' E 003°10'1111.3
2014-Jul-25 05:33N 51°27' E 002°60'1312.8
2014-Jul-25 04:33N 51°24' E 003°20'1414.2
2014-Jul-25 03:33N 51°25' E 003°42'10 9.9
2014-Jul-25 02:33N 51°26' E 003°58'9 9.4
2014-Jul-25 01:33N 51°23' E 004°13'4 3.9
2014-Jul-25 00:34N 51°21' E 004°17'1 1.0
2014-Jul-24 23:33N 51°20' E 004°18'4 3.9
2014-Jul-24 22:33N 51°16' E 004°21'0 0.0
2014-Jul-24 21:32N 51°16' E 004°21'0 0.0
2014-Jul-24 20:32N 51°16' E 004°21'0 0.0
2014-Jul-24 19:32N 51°16' E 004°21'0 0.0
2014-Jul-24 18:32N 51°16' E 004°21'0 0.0
2014-Jul-24 17:32N 51°16' E 004°21'0 0.0
2014-Jul-24 16:32N 51°16' E 004°21'0 0.0
2014-Jul-24 15:32N 51°16' E 004°21'0 0.0
2014-Jul-24 14:32N 51°16' E 004°21'0 0.0
2014-Jul-24 13:32N 51°16' E 004°21'0 0.0
2014-Jul-24 12:32N 51°16' E 004°21'0 0.0
2014-Jul-24 11:32N 51°16' E 004°21'0 0.0
2014-Jul-24 10:32N 51°16' E 004°21'0 0.0
2014-Jul-24 09:32N 51°16' E 004°21'0 0.0
2014-Jul-24 08:32N 51°16' E 004°21'0 0.0
2014-Jul-24 07:32N 51°16' E 004°21'0 0.0
2014-Jul-24 06:32N 51°16' E 004°21'0 0.0
2014-Jul-24 05:32N 51°16' E 004°21'0 0.0
2014-Jul-24 04:32N 51°16' E 004°21'0 0.0
2014-Jul-24 03:32N 51°16' E 004°21'0 0.0
2014-Jul-24 02:32N 51°16' E 004°21'0 0.0
2014-Jul-24 01:32N 51°16' E 004°21'0 0.0
2014-Jul-24 00:32N 51°16' E 004°21'0 0.0
2014-Jul-23 23:32N 51°16' E 004°21'0 0.0
2014-Jul-23 22:32N 51°16' E 004°21'0 0.0
2014-Jul-23 21:32N 51°16' E 004°21'0 0.0
2014-Jul-23 20:32N 51°16' E 004°21'0 0.0
2014-Jul-23 19:32N 51°16' E 004°21'0 0.0
2014-Jul-23 18:32N 51°16' E 004°21'0 0.0
2014-Jul-23 17:32N 51°16' E 004°21'0 0.0
2014-Jul-23 16:32N 51°16' E 004°21'0 0.0
2014-Jul-23 15:32N 51°16' E 004°21'0 0.0
2014-Jul-23 14:29N 51°16' E 004°21'0 0.0
2014-Jul-23 13:32N 51°16' E 004°21'0 0.0
2014-Jul-23 12:32N 51°16' E 004°21'0 0.0
2014-Jul-23 11:32N 51°16' E 004°21'0 0.0
2014-Jul-23 10:32N 51°16' E 004°21'0 0.0
2014-Jul-23 09:29N 51°16' E 004°21'0 0.0
2014-Jul-23 08:32N 51°16' E 004°21'0 0.0
2014-Jul-23 07:32N 51°16' E 004°21'0 0.0
2014-Jul-23 06:32N 51°16' E 004°21'0 0.0
2014-Jul-23 05:32N 51°16' E 004°21'0 0.0
2014-Jul-23 04:32N 51°16' E 004°21'0 0.0
2014-Jul-23 03:32N 51°16' E 004°21'0 0.0
2014-Jul-23 02:32N 51°16' E 004°21'0 0.0
2014-Jul-23 01:23N 51°16' E 004°21'0 0.0
2014-Jul-23 00:29N 51°16' E 004°21'0 0.0
2014-Jul-22 23:29N 51°16' E 004°21'0 0.0
2014-Jul-22 22:32N 51°16' E 004°21'0 0.0
2014-Jul-22 21:32N 51°16' E 004°21'0 0.0
2014-Jul-22 20:32N 51°16' E 004°21'0 0.0
2014-Jul-22 19:32N 51°16' E 004°21'0 0.0
2014-Jul-22 18:32N 51°16' E 004°21'0 0.0
2014-Jul-22 17:32N 51°16' E 004°21'0 0.0
2014-Jul-22 16:32N 51°16' E 004°21'0 0.0
2014-Jul-22 15:29N 51°16' E 004°21'0 0.0
2014-Jul-22 14:32N 51°16' E 004°21'0 0.0
2014-Jul-22 13:32N 51°16' E 004°21'0 0.0
2014-Jul-22 12:32N 51°16' E 004°21'0 0.0
2014-Jul-22 11:32N 51°16' E 004°21'0 0.0
2014-Jul-22 10:33N 51°16' E 004°21'4 4.4
2014-Jul-22 09:34N 51°20' E 004°18'1 0.7
2014-Jul-22 08:34N 51°21' E 004°17'0 0.0
2014-Jul-22 07:34N 51°21' E 004°17'3 2.5
2014-Jul-22 06:34N 51°22' E 004°13'7 7.0
2014-Jul-22 05:34N 51°23' E 004°02'5 4.6
2014-Jul-22 04:34N 51°22' E 003°55'9 9.2
2014-Jul-22 03:34N 51°26' E 003°42'10 9.5
2014-Jul-22 02:33N 51°25' E 003°26'8 7.5
2014-Jul-22 01:33N 51°24' E 003°14'9 8.8
2014-Jul-22 00:33N 51°25' E 003°00'1111.4
2014-Jul-21 23:33N 51°23' E 002°42'7 6.8
2014-Jul-21 22:33N 51°22' E 002°31'5 4.7
2014-Jul-21 21:33N 51°20' E 002°24'8 7.5
2014-Jul-21 20:30N 51°18' E 002°12'211.7
2014-Jul-21 20:18N 51°19' E 002°09'911.5
2014-Jul-21 19:33N 51°25' E 001°59'1212.4
2014-Jul-21 18:33N 51°35' E 002°12'1313.2
2014-Jul-21 17:33N 51°46' E 002°24'1413.9
2014-Jul-21 16:34N 51°57' E 002°38'3113.5
2014-Jul-21 14:17N 52°20' E 003°11'2212.4
2014-Jul-21 12:31N 52°31' E 003°42'1212.4
2014-Jul-21 11:33N 52°31' E 004°02'1212.6
2014-Jul-21 10:33N 52°30' E 004°22'9 9.0
2014-Jul-21 09:33N 52°28' E 004°36'2 1.6
2014-Jul-21 08:33N 52°28' E 004°39'5 4.7
2014-Jul-21 07:33N 52°25' E 004°45'0 0.0
2014-Jul-21 06:33N 52°25' E 004°45'0 0.0
2014-Jul-21 05:33N 52°25' E 004°45'0 0.0
2014-Jul-21 04:33N 52°25' E 004°45'0 0.0
2014-Jul-21 03:33N 52°25' E 004°45'0 0.0
2014-Jul-21 02:33N 52°25' E 004°45'0 0.0
2014-Jul-21 01:33N 52°25' E 004°45'0 0.0
2014-Jul-21 00:33N 52°25' E 004°45'0 0.0
2014-Jul-20 23:33N 52°25' E 004°45'0 0.0
2014-Jul-20 22:33N 52°25' E 004°45'0 0.0
2014-Jul-20 21:33N 52°25' E 004°45'0 0.0
2014-Jul-20 20:33N 52°25' E 004°45'0 0.0
2014-Jul-20 19:33N 52°25' E 004°45'0 0.0
2014-Jul-20 18:33N 52°25' E 004°45'0 0.0
2014-Jul-20 17:33N 52°25' E 004°45'0 0.0
2014-Jul-20 16:33N 52°25' E 004°45'0 0.0
2014-Jul-20 15:33N 52°25' E 004°45'0 0.0
2014-Jul-20 14:33N 52°25' E 004°45'0 0.0
2014-Jul-20 13:33N 52°25' E 004°45'0 0.0
2014-Jul-20 12:33N 52°25' E 004°45'0 0.0
2014-Jul-20 11:33N 52°25' E 004°45'0 0.0
2014-Jul-20 10:33N 52°25' E 004°45'0 0.0
2014-Jul-20 09:33N 52°25' E 004°45'0 0.0
2014-Jul-20 08:33N 52°25' E 004°45'0 0.0
2014-Jul-20 07:33N 52°25' E 004°45'0 0.0
2014-Jul-20 06:33N 52°25' E 004°45'0 0.0
2014-Jul-20 05:33N 52°25' E 004°45'0 0.0
2014-Jul-20 04:33N 52°25' E 004°45'0 0.0
2014-Jul-20 03:33N 52°25' E 004°45'0 0.0
2014-Jul-20 02:33N 52°25' E 004°45'0 0.0
2014-Jul-20 01:33N 52°25' E 004°45'0 0.0
2014-Jul-20 00:33N 52°25' E 004°45'0 0.0
2014-Jul-19 23:33N 52°25' E 004°45'0 0.0
2014-Jul-19 22:33N 52°25' E 004°45'0 0.0
2014-Jul-19 21:33N 52°25' E 004°45'0 0.0
2014-Jul-19 20:33N 52°25' E 004°45'1 0.9
2014-Jul-19 19:34N 52°26' E 004°45'5 5.1
2014-Jul-19 18:33N 52°28' E 004°37'1 0.7
2014-Jul-19 17:34N 52°28' E 004°36'6 6.3
2014-Jul-19 16:33N 52°29' E 004°26'8 8.2
2014-Jul-19 15:33N 52°29' E 004°12'1110.6
2014-Jul-19 14:33N 52°27' E 003°55'7 7.0
2014-Jul-19 13:33N 52°25' E 003°44'9 8.7
2014-Jul-19 12:32N 52°23' E 003°30'1211.0
2014-Jul-19 11:23N 52°13' E 003°17'3812.2
2014-Jul-19 08:16N 51°45' E 002°35'913.0
2014-Jul-19 07:33N 51°38' E 002°25'1313.4
2014-Jul-19 06:33N 51°28' E 002°12'1212.0
2014-Jul-19 05:33N 51°16' E 002°07'1413.7
2014-Jul-19 04:33N 51°08' E 001°49'1515.0
2014-Jul-19 03:34N 50°58' E 001°32'1413.9
2014-Jul-19 02:31N 50°45' E 001°22'1313.2
2014-Jul-19 01:32N 50°35' E 001°09'1712.6
2014-Jul-19 00:10N 50°27' E 000°45'812.2
2014-Jul-18 23:33N 50°25' E 000°34'1211.7
2014-Jul-18 22:33N 50°21' E 000°16'2311.0
2014-Jul-18 20:30N 50°15' W 000°18'1310.1
2014-Jul-18 19:15N 50°12' W 000°37'7 9.7
2014-Jul-18 18:33N 50°10' W 000°47'10 9.5
2014-Jul-18 17:33N 50°08' W 001°02'1010.1
2014-Jul-18 16:32N 50°05' W 001°17'1611.7
2014-Jul-18 15:10N 50°01' W 001°41'1313.5
2014-Jul-18 14:13N 49°58' W 002°01'4213.7
2014-Jul-18 11:09N 49°47' W 003°03'5213.3
2014-Jul-18 07:14N 49°20' W 004°13'2313.0
2014-Jul-18 05:28N 49°09' W 004°43'1212.3
2014-Jul-18 04:27N 49°02' W 004°59'4310.9
2014-Jul-18 00:32N 48°34' W 005°48'1311.1
2014-Jul-17 23:19N 48°22' W 005°58'911.7
2014-Jul-17 22:33N 48°14' W 006°04'45511.7
2014-Jul-16 07:29N 41°10' W 009°56'7311.6
2014-Jul-16 01:09N 39°56' W 009°57'3311.4
2014-Jul-15 22:17N 39°24' W 009°57'2211.2
2014-Jul-15 20:17N 39°01' W 009°55'810.9
2014-Jul-15 19:33N 38°53' W 009°57'1111.3
2014-Jul-15 18:33N 38°42' W 009°56'1211.8
2014-Jul-15 17:33N 38°30' W 009°53'1111.3
2014-Jul-15 16:33N 38°19' W 009°50'1111.4
2014-Jul-15 15:33N 38°08' W 009°47'  

Dump ship's entire track history